createdAt,value
2023-04-02T00:00:10.737Z,2.40
2023-04-02T00:03:15.490Z,2.65
2023-04-02T00:06:30.627Z,2.62
2023-04-02T00:09:37.571Z,2.67
2023-04-02T00:12:40.674Z,2.28
2023-04-02T00:15:46.796Z,3.10
2023-04-02T00:18:56.242Z,4.87
2023-04-02T00:22:00.507Z,3.40
2023-04-02T00:25:12.555Z,2.20
2023-04-02T00:28:23.486Z,2.28
2023-04-02T00:31:27.309Z,3.33
2023-04-02T00:34:36.197Z,3.95
2023-04-02T00:37:39.488Z,3.03
2023-04-02T00:40:42.643Z,2.57
2023-04-02T00:43:57.622Z,3.12
2023-04-02T00:47:15.578Z,2.20
2023-04-02T00:50:34.202Z,2.83
2023-04-02T00:53:38.721Z,2.60
2023-04-02T00:56:46.445Z,2.90
2023-04-02T01:00:03.102Z,2.67
2023-04-02T01:03:18.178Z,2.47
2023-04-02T01:06:22.443Z,3.45
2023-04-02T01:10:00.440Z,3.87
2023-04-02T01:13:14.349Z,2.73
2023-04-02T01:16:26.062Z,2.65
2023-04-02T01:19:52.633Z,3.35
2023-04-02T01:22:55.524Z,2.30
2023-04-02T01:26:31.922Z,2.83
2023-04-02T01:29:39.844Z,2.60
2023-04-02T01:32:43.620Z,2.35
2023-04-02T01:35:53.885Z,3.45
2023-04-02T01:39:12.425Z,2.60
2023-04-02T01:42:31.184Z,2.50
2023-04-02T01:45:35.230Z,2.90
2023-04-02T01:48:39.661Z,2.78
2023-04-02T01:51:45.020Z,3.10
2023-04-02T01:54:48.780Z,2.50
2023-04-02T01:57:53.899Z,2.42
2023-04-02T02:01:12.399Z,2.93
2023-04-02T02:04:16.812Z,2.20
2023-04-02T02:07:21.214Z,2.58
2023-04-02T02:10:29.354Z,2.87
2023-04-02T02:13:32.376Z,3.08
2023-04-02T02:16:41.994Z,2.43
2023-04-02T02:19:57.866Z,2.97
2023-04-02T02:23:01.976Z,3.03
2023-04-02T02:26:07.188Z,2.95
2023-04-02T02:29:16.179Z,3.60
2023-04-02T02:32:22.478Z,2.43
2023-04-02T02:35:45.205Z,2.83
2023-04-02T02:38:53.161Z,2.50
2023-04-02T02:42:21.856Z,2.90
2023-04-02T02:45:28.143Z,2.75
2023-04-02T02:48:37.380Z,2.33
2023-04-02T02:51:50.030Z,1.95
2023-04-02T02:55:06.613Z,4.15
2023-04-02T02:58:27.535Z,2.62
2023-04-02T03:01:32.116Z,2.72
2023-04-02T03:04:36.146Z,2.53
2023-04-02T03:07:39.121Z,2.60
2023-04-02T03:10:58.936Z,2.53
2023-04-02T03:14:20.500Z,2.45
2023-04-02T03:17:49.788Z,2.90
2023-04-02T03:20:58.246Z,2.37
2023-04-02T03:24:05.902Z,2.65
2023-04-02T03:27:21.249Z,3.00
2023-04-02T03:30:38.262Z,3.00
2023-04-02T03:33:51.203Z,2.85
2023-04-02T03:37:10.073Z,2.80
2023-04-02T03:40:20.945Z,2.97
2023-04-02T03:43:27.131Z,3.30
2023-04-02T03:46:47.339Z,3.72
2023-04-02T03:49:58.770Z,2.67
2023-04-02T03:53:05.500Z,2.87
2023-04-02T03:56:19.391Z,2.92
2023-04-02T03:59:41.774Z,3.72
2023-04-02T04:02:52.800Z,3.87
2023-04-02T04:06:02.325Z,2.87
2023-04-02T04:09:18.417Z,3.10
2023-04-02T04:12:35.317Z,3.40
2023-04-02T04:16:05.281Z,5.03
2023-04-02T04:19:21.982Z,3.40
2023-04-02T04:22:34.063Z,2.65
2023-04-02T04:25:38.090Z,3.40
2023-04-02T04:29:05.566Z,3.00
2023-04-02T04:32:34.693Z,3.17
2023-04-02T04:35:43.787Z,3.40
2023-04-02T04:38:55.729Z,3.40
2023-04-02T04:42:01.493Z,3.50
2023-04-02T04:45:27.681Z,3.20
2023-04-02T04:48:39.043Z,5.70
2023-04-02T04:52:01.163Z,3.25
2023-04-02T04:55:20.883Z,3.92
2023-04-02T04:58:26.685Z,3.77
2023-04-02T05:01:56.847Z,3.25
2023-04-02T05:05:02.390Z,4.15
2023-04-02T05:08:17.252Z,3.78
2023-04-02T05:11:37.419Z,3.30
2023-04-02T05:15:12.897Z,4.07
2023-04-02T05:18:27.536Z,3.87
2023-04-02T05:21:51.833Z,4.00
2023-04-02T05:24:55.663Z,3.75
2023-04-02T05:28:21.695Z,4.07
2023-04-02T05:31:31.176Z,3.67
2023-04-02T05:34:40.110Z,3.65
2023-04-02T05:37:43.599Z,5.43
2023-04-02T05:40:51.223Z,4.25
2023-04-02T05:44:22.710Z,3.50
2023-04-02T05:47:30.604Z,3.53
2023-04-02T05:50:40.117Z,5.43
2023-04-02T05:54:01.928Z,3.72
2023-04-02T05:57:14.131Z,5.22
2023-04-02T06:00:39.274Z,4.50
2023-04-02T06:03:56.437Z,3.63
2023-04-02T06:07:12.394Z,3.53
2023-04-02T06:10:28.946Z,3.22
2023-04-02T06:13:31.745Z,3.65
2023-04-02T06:16:36.978Z,5.03
2023-04-02T06:19:40.761Z,4.17
2023-04-02T06:22:46.312Z,3.08
2023-04-02T06:25:55.496Z,5.75
2023-04-02T06:29:24.668Z,5.55
2023-04-02T06:32:29.023Z,3.72
2023-04-02T06:35:36.079Z,3.90
2023-04-02T06:38:40.596Z,3.53
2023-04-02T06:41:45.740Z,4.75
2023-04-02T06:44:50.938Z,4.22
2023-04-02T06:47:57.233Z,3.30
2023-04-02T06:51:07.255Z,3.63
2023-04-02T06:54:16.179Z,3.75
2023-04-02T06:57:19.168Z,3.58
2023-04-02T07:00:35.198Z,3.80
2023-04-02T07:03:40.190Z,4.47
2023-04-02T07:06:44.480Z,3.70
2023-04-02T07:09:47.316Z,3.60
2023-04-02T07:12:50.758Z,4.20
2023-04-02T07:15:57.354Z,3.60
2023-04-02T07:19:01.181Z,3.90
2023-04-02T07:22:04.274Z,3.70
2023-04-02T07:25:07.416Z,4.43
2023-04-02T07:28:09.892Z,3.97
2023-04-02T07:31:17.882Z,4.30
2023-04-02T07:34:20.606Z,5.10
2023-04-02T07:37:23.354Z,4.97
2023-04-02T07:40:26.028Z,4.95
2023-04-02T07:43:28.720Z,3.25
2023-04-02T07:46:31.405Z,3.72
2023-04-02T07:49:34.414Z,3.40
2023-04-02T07:52:43.971Z,4.10
2023-04-02T07:55:52.736Z,4.28
2023-04-02T07:58:55.410Z,3.70
2023-04-02T08:01:58.777Z,4.12
2023-04-02T08:05:01.550Z,4.43
2023-04-02T08:08:04.062Z,3.90
2023-04-02T08:11:07.413Z,3.90
2023-04-02T08:14:10.860Z,4.25
2023-04-02T08:17:13.571Z,6.40
2023-04-02T08:20:18.299Z,4.12
2023-04-02T08:23:21.802Z,4.50
2023-04-02T08:26:24.275Z,4.40
2023-04-02T08:29:29.399Z,4.78
2023-04-02T08:32:31.912Z,3.70
2023-04-02T08:35:35.174Z,3.75
2023-04-02T08:38:37.826Z,9.43
2023-04-02T08:42:07.355Z,4.37
2023-04-02T08:45:46.973Z,4.82
2023-04-02T08:48:57.626Z,4.30
2023-04-02T08:52:00.823Z,3.97
2023-04-02T08:55:12.556Z,4.03
2023-04-02T08:58:48.478Z,4.00
2023-04-02T09:02:11.055Z,5.00
2023-04-02T09:05:26.748Z,3.87
2023-04-02T09:08:32.248Z,3.83
2023-04-02T09:12:04.273Z,3.17
2023-04-02T09:15:34.163Z,3.65
2023-04-02T09:18:38.496Z,4.78
2023-04-02T09:21:47.151Z,4.10
2023-04-02T09:24:57.668Z,4.45
2023-04-02T09:28:04.096Z,4.13
2023-04-02T09:31:21.002Z,3.50
2023-04-02T09:34:36.769Z,4.00
2023-04-02T09:37:40.529Z,5.37
2023-04-02T09:40:55.693Z,4.60
2023-04-02T09:44:13.665Z,6.10
2023-04-02T09:47:27.485Z,4.40
2023-04-02T09:50:34.065Z,4.78
2023-04-02T09:53:46.177Z,4.60
2023-04-02T09:57:03.189Z,5.35
2023-04-02T10:00:32.578Z,4.33
2023-04-02T10:03:35.674Z,4.60
2023-04-02T10:06:49.928Z,5.12
2023-04-02T10:10:02.176Z,5.25
2023-04-02T10:13:25.187Z,4.78
2023-04-02T10:16:33.299Z,4.60
2023-04-02T10:19:39.207Z,4.30
2023-04-02T10:22:42.416Z,5.10
2023-04-02T10:26:01.469Z,4.93
2023-04-02T10:29:09.835Z,4.45
2023-04-02T10:32:18.684Z,6.07
2023-04-02T10:35:42.434Z,5.43
2023-04-02T10:38:50.802Z,5.22
2023-04-02T10:42:16.561Z,4.30
2023-04-02T10:45:56.745Z,6.37
2023-04-02T10:49:27.869Z,4.90
2023-04-02T10:52:38.847Z,4.82
2023-04-02T10:55:45.601Z,4.87
2023-04-02T10:58:58.090Z,5.55
2023-04-02T11:02:06.806Z,4.30
2023-04-02T11:05:40.371Z,4.60
2023-04-02T11:08:46.993Z,4.78
2023-04-02T11:11:52.904Z,5.85
2023-04-02T11:14:57.088Z,4.60
2023-04-02T11:18:00.012Z,4.55
2023-04-02T11:21:08.251Z,5.20
2023-04-02T11:24:33.974Z,3.95
2023-04-02T11:27:36.980Z,4.45
2023-04-02T11:30:39.666Z,4.75
2023-04-02T11:33:46.038Z,4.60
2023-04-02T11:36:55.676Z,4.33
2023-04-02T11:40:00.396Z,4.00
2023-04-02T11:43:35.517Z,4.37
2023-04-02T11:46:43.064Z,3.67
2023-04-02T11:49:54.584Z,4.18
2023-04-02T11:53:34.437Z,4.20
2023-04-02T11:56:43.720Z,5.22
2023-04-02T11:59:59.418Z,4.32
2023-04-02T12:03:46.864Z,5.25
2023-04-02T12:07:04.999Z,4.35
2023-04-02T12:10:28.359Z,3.93
2023-04-02T12:13:40.044Z,5.18
2023-04-02T12:16:42.711Z,4.60
2023-04-02T12:19:52.498Z,3.58
2023-04-02T12:22:56.453Z,4.45
2023-04-02T12:26:03.579Z,5.70
2023-04-02T12:29:28.457Z,3.87
2023-04-02T12:32:31.537Z,4.57
2023-04-02T12:35:36.117Z,5.25
2023-04-02T12:38:49.939Z,4.18
2023-04-02T12:41:52.349Z,5.57
2023-04-02T12:44:56.269Z,4.82
2023-04-02T12:48:02.099Z,4.07
2023-04-02T12:51:05.461Z,5.18
2023-04-02T12:54:14.918Z,5.78
2023-04-02T12:57:27.435Z,4.30
2023-04-02T13:00:32.189Z,5.10
2023-04-02T13:03:34.915Z,4.72
2023-04-02T13:06:38.585Z,3.90
2023-04-02T13:09:46.619Z,3.85
2023-04-02T13:12:54.740Z,4.63
2023-04-02T13:16:04.754Z,4.57
2023-04-02T13:19:31.908Z,4.53
2023-04-02T13:22:34.489Z,3.60
2023-04-02T13:25:37.211Z,4.12
2023-04-02T13:28:40.151Z,7.33
2023-04-02T13:31:42.845Z,4.07
2023-04-02T13:34:45.626Z,3.30
2023-04-02T13:37:48.984Z,3.05
2023-04-02T13:40:52.038Z,2.97
2023-04-02T13:43:56.166Z,3.40
2023-04-02T13:46:59.887Z,4.05
2023-04-02T13:50:02.277Z,3.25
2023-04-02T13:53:10.265Z,3.72
2023-04-02T13:56:13.074Z,3.03
2023-04-02T13:59:16.406Z,4.57
2023-04-02T14:02:24.465Z,3.65
2023-04-02T14:05:51.155Z,3.40
2023-04-02T14:08:56.361Z,4.35
2023-04-02T14:12:28.669Z,4.22
2023-04-02T14:15:49.155Z,3.57
2023-04-02T14:18:54.983Z,3.30
2023-04-02T14:22:27.068Z,4.82
2023-04-02T14:25:57.653Z,3.20
2023-04-02T14:29:09.991Z,4.28
2023-04-02T14:32:34.685Z,3.53
2023-04-02T14:35:49.816Z,3.53
2023-04-02T14:39:04.480Z,4.40
2023-04-02T14:42:22.232Z,5.45
2023-04-02T14:45:30.929Z,4.28
2023-04-02T14:48:45.463Z,4.00
2023-04-02T14:52:09.197Z,4.45
2023-04-02T14:55:21.189Z,3.60
2023-04-02T14:58:34.710Z,3.60
2023-04-02T15:01:43.739Z,4.03
2023-04-02T15:04:54.268Z,3.50
2023-04-02T15:08:37.212Z,4.00
2023-04-02T15:11:48.260Z,4.60
2023-04-02T15:15:07.973Z,6.87
2023-04-02T15:18:16.326Z,4.45
2023-04-02T15:21:29.524Z,6.03
2023-04-02T15:25:00.518Z,4.72
2023-04-02T15:28:42.078Z,6.78
2023-04-02T15:31:46.665Z,6.72
2023-04-02T15:35:06.617Z,3.60
2023-04-02T15:38:12.236Z,4.47
2023-04-02T15:41:40.966Z,4.90
2023-04-02T15:44:58.931Z,4.35
2023-04-02T15:48:31.222Z,7.20
2023-04-02T15:51:40.085Z,5.15
2023-04-02T15:54:51.477Z,6.37
2023-04-02T15:58:18.647Z,7.47
2023-04-02T16:01:39.390Z,5.40
2023-04-02T16:05:17.705Z,6.53
2023-04-02T16:08:40.229Z,7.07
2023-04-02T16:11:43.042Z,6.30
2023-04-02T16:14:48.056Z,6.22
2023-04-02T16:18:01.634Z,5.85
2023-04-02T16:21:04.610Z,5.68
2023-04-02T16:24:13.064Z,7.10
2023-04-02T16:27:37.730Z,5.77
2023-04-02T16:30:57.743Z,6.10
2023-04-02T16:34:15.943Z,7.47
2023-04-02T16:37:38.579Z,6.25
2023-04-02T16:41:09.663Z,7.20
2023-04-02T16:44:12.321Z,7.80
2023-04-02T16:47:37.450Z,10.35
2023-04-02T16:51:02.425Z,7.75
2023-04-02T16:54:14.853Z,5.45
2023-04-02T16:57:39.095Z,6.68
2023-04-02T17:01:11.877Z,5.00
2023-04-02T17:04:31.092Z,5.82
2023-04-02T17:07:40.784Z,5.35
2023-04-02T17:11:01.957Z,5.55
2023-04-02T17:14:12.440Z,8.10
2023-04-02T17:17:16.294Z,5.10
2023-04-02T17:20:22.629Z,4.57
2023-04-02T17:23:30.045Z,6.43
2023-04-02T17:26:36.855Z,4.90
2023-04-02T17:29:43.448Z,5.93
2023-04-02T17:32:46.162Z,6.00
2023-04-02T17:36:01.140Z,3.75
2023-04-02T17:39:31.372Z,5.10
2023-04-02T17:42:58.434Z,4.03
2023-04-02T17:46:47.517Z,3.78
2023-04-02T17:50:17.498Z,3.50
2023-04-02T17:53:25.313Z,3.47
2023-04-02T17:56:56.346Z,4.43
2023-04-02T18:00:24.038Z,4.82
2023-04-02T18:03:29.935Z,5.35
2023-04-02T18:06:54.627Z,4.97
2023-04-02T18:10:29.690Z,5.03
2023-04-02T18:13:40.560Z,4.82
2023-04-02T18:16:57.143Z,5.80
2023-04-02T18:20:21.005Z,6.25
2023-04-02T18:23:39.803Z,7.90
2023-04-02T18:26:53.191Z,5.70
2023-04-02T18:29:55.915Z,6.12
2023-04-02T18:33:26.789Z,5.10
2023-04-02T18:37:06.540Z,6.50
2023-04-02T18:40:22.162Z,6.00
2023-04-02T18:43:30.909Z,5.78
2023-04-02T18:46:52.163Z,5.50
2023-04-02T18:50:15.894Z,7.72
2023-04-02T18:53:24.144Z,6.80
2023-04-02T18:56:27.737Z,6.93
2023-04-02T18:59:36.022Z,6.22
2023-04-02T19:02:45.558Z,5.45
2023-04-02T19:06:09.895Z,6.12
2023-04-02T19:09:16.785Z,5.93
2023-04-02T19:12:21.186Z,5.33
2023-04-02T19:15:34.976Z,5.97
2023-04-02T19:19:01.724Z,6.37
2023-04-02T19:22:33.512Z,6.80
2023-04-02T19:25:53.434Z,5.20
2023-04-02T19:29:18.495Z,5.97
2023-04-02T19:32:39.464Z,6.35
2023-04-02T19:35:56.528Z,6.82
2023-04-02T19:39:04.835Z,6.05
2023-04-02T19:42:28.466Z,6.20
2023-04-02T19:45:40.377Z,5.63
2023-04-02T19:49:07.153Z,5.55
2023-04-02T19:52:11.106Z,7.00
2023-04-02T19:55:14.123Z,5.95
2023-04-02T19:58:36.875Z,6.75
2023-04-02T20:01:39.938Z,6.50
2023-04-02T20:04:42.618Z,8.02
2023-04-02T20:07:45.085Z,5.80
2023-04-02T20:10:47.769Z,7.05
2023-04-02T20:13:50.578Z,5.72
2023-04-02T20:16:53.424Z,6.03
2023-04-02T20:19:56.039Z,5.03
2023-04-02T20:22:58.896Z,5.25
2023-04-02T20:26:02.730Z,5.30
2023-04-02T20:29:05.527Z,5.70
2023-04-02T20:32:12.963Z,6.40
2023-04-02T20:35:15.754Z,5.25
2023-04-02T20:38:20.949Z,4.93
2023-04-02T20:41:24.018Z,5.60
2023-04-02T20:44:28.252Z,5.03
2023-04-02T20:47:30.955Z,5.13
2023-04-02T20:50:33.448Z,5.62
2023-04-02T20:53:37.855Z,5.10
2023-04-02T20:56:40.308Z,5.07
2023-04-02T20:59:42.998Z,4.90
2023-04-02T21:02:45.527Z,5.23
2023-04-02T21:05:48.306Z,4.80
2023-04-02T21:08:51.192Z,6.12
2023-04-02T21:11:53.926Z,4.90
2023-04-02T21:15:00.975Z,5.60
2023-04-02T21:18:03.921Z,5.87
2023-04-02T21:21:07.425Z,5.62
2023-04-02T21:24:10.411Z,5.60
2023-04-02T21:27:12.877Z,4.75
2023-04-02T21:30:15.839Z,5.35
2023-04-02T21:33:18.735Z,5.90
2023-04-02T21:36:24.023Z,6.18
2023-04-02T21:39:26.494Z,5.72
2023-04-02T21:42:29.209Z,6.18
2023-04-02T21:45:31.617Z,6.82
2023-04-02T21:48:34.426Z,6.73
2023-04-02T21:51:38.502Z,5.57
2023-04-02T21:54:41.190Z,5.72
2023-04-02T21:57:43.624Z,5.62
2023-04-02T22:00:46.507Z,5.85
2023-04-02T22:03:49.626Z,6.00
2023-04-02T22:06:53.368Z,5.55
2023-04-02T22:09:56.204Z,8.70
2023-04-02T22:12:58.850Z,6.07
2023-04-02T22:16:05.679Z,6.65
2023-04-02T22:19:12.367Z,6.33
2023-04-02T22:22:15.515Z,7.50
2023-04-02T22:25:18.121Z,7.10
2023-04-02T22:28:21.485Z,6.97
2023-04-02T22:31:27.611Z,6.65
2023-04-02T22:34:30.609Z,5.60
2023-04-02T22:37:34.061Z,6.80
2023-04-02T22:40:37.621Z,5.78
2023-04-02T22:43:43.974Z,6.32
2023-04-02T22:46:46.822Z,6.60
2023-04-02T22:49:49.199Z,7.03
2023-04-02T22:52:51.831Z,6.57
2023-04-02T22:55:54.463Z,7.45
2023-04-02T22:58:57.317Z,6.62
2023-04-02T23:01:59.798Z,6.85
2023-04-02T23:05:02.919Z,6.23
2023-04-02T23:08:06.254Z,6.80
2023-04-02T23:11:28.865Z,5.57
2023-04-02T23:14:31.279Z,6.50
2023-04-02T23:17:35.842Z,6.35
2023-04-02T23:20:38.418Z,6.10
2023-04-02T23:23:41.443Z,5.82
2023-04-02T23:26:43.812Z,7.78
2023-04-02T23:29:46.749Z,6.40
2023-04-02T23:32:49.089Z,6.22
2023-04-02T23:35:52.021Z,7.47
2023-04-02T23:38:56.653Z,7.00
2023-04-02T23:42:00.725Z,6.32
2023-04-02T23:45:03.238Z,6.68
2023-04-02T23:48:06.455Z,6.35
2023-04-02T23:51:08.961Z,6.73
2023-04-02T23:54:14.871Z,5.87
2023-04-02T23:57:17.449Z,7.35
